createdAt,value
2018-05-29T00:00:54.902Z,17.31
2018-05-29T00:03:23.954Z,17.23
2018-05-29T00:05:53.001Z,17.17
2018-05-29T00:08:22.070Z,17.08
2018-05-29T00:10:51.126Z,16.94
2018-05-29T00:13:20.181Z,16.80
2018-05-29T00:21:00.700Z,16.78
2018-05-29T00:23:29.745Z,16.78
2018-05-29T00:25:58.793Z,16.78
2018-05-29T00:28:27.842Z,16.77
2018-05-29T00:30:56.889Z,16.50
2018-05-29T00:33:25.949Z,16.52
2018-05-29T00:35:55.009Z,16.38
2018-05-29T00:38:24.054Z,16.47
2018-05-29T00:40:54.078Z,16.29
2018-05-29T00:43:23.120Z,16.14
2018-05-29T00:45:52.173Z,16.04
2018-05-29T00:48:21.231Z,16.15
2018-05-29T00:53:27.054Z,16.03
2018-05-29T00:55:56.098Z,15.92
2018-05-29T01:01:00.928Z,15.89
2018-05-29T01:03:29.979Z,15.73
2018-05-29T01:05:59.034Z,15.64
2018-05-29T01:08:28.089Z,15.57
2018-05-29T01:10:57.137Z,15.52
2018-05-29T01:16:02.486Z,15.67
2018-05-29T01:18:31.505Z,15.82
2018-05-29T01:23:36.350Z,15.60
2018-05-29T01:26:05.396Z,15.53
2018-05-29T01:28:34.454Z,15.49
2018-05-29T01:33:39.278Z,15.18
2018-05-29T01:36:08.346Z,15.19
2018-05-29T01:38:37.398Z,15.24
2018-05-29T01:41:06.454Z,15.22
2018-05-29T01:43:35.501Z,15.03
2018-05-29T01:48:40.334Z,15.13
2018-05-29T01:51:09.380Z,15.21
2018-05-29T01:53:38.423Z,15.06
2018-05-29T01:56:07.478Z,15.02
2018-05-29T01:58:36.541Z,14.97
2018-05-29T02:01:05.594Z,14.91
2018-05-29T02:03:34.640Z,14.69
2018-05-29T02:06:03.697Z,14.63
2018-05-29T02:08:32.731Z,14.46
2018-05-29T02:14:08.767Z,14.44
2018-05-29T02:16:37.853Z,14.33
2018-05-29T02:19:06.901Z,14.26
2018-05-29T02:21:35.946Z,14.27
2018-05-29T02:24:05.018Z,14.26
2018-05-29T02:26:34.070Z,14.30
2018-05-29T02:31:38.811Z,14.38
2018-05-29T02:36:43.570Z,14.35
2018-05-29T02:39:12.621Z,14.34
2018-05-29T02:41:41.665Z,14.33
2018-05-29T02:44:11.665Z,14.53
2018-05-29T02:46:40.727Z,14.68
2018-05-29T02:49:09.856Z,14.71
2018-05-29T02:51:38.879Z,14.72
2018-05-29T02:54:07.938Z,14.74
2018-05-29T02:56:36.984Z,14.67
2018-05-29T02:59:06.979Z,14.65
2018-05-29T03:01:36.034Z,14.64
2018-05-29T03:04:05.094Z,14.60
2018-05-29T03:06:34.136Z,14.39
2018-05-29T03:09:03.214Z,14.28
2018-05-29T03:11:32.247Z,14.43
2018-05-29T03:14:01.478Z,14.30
2018-05-29T03:16:30.758Z,14.37
2018-05-29T03:18:59.803Z,14.43
2018-05-29T03:21:28.842Z,14.24
2018-05-29T03:23:57.984Z,14.19
2018-05-29T03:26:27.079Z,14.15
2018-05-29T03:31:31.958Z,14.29
2018-05-29T03:36:36.861Z,14.62
2018-05-29T03:39:05.898Z,14.51
2018-05-29T03:41:34.985Z,14.49
2018-05-29T03:44:05.116Z,14.58
2018-05-29T03:46:34.110Z,14.54
2018-05-29T03:49:03.153Z,14.55
2018-05-29T03:51:32.487Z,14.39
2018-05-29T03:54:01.557Z,14.36
2018-05-29T03:56:30.599Z,14.36
2018-05-29T03:59:00.193Z,14.32
2018-05-29T04:01:29.235Z,14.22
2018-05-29T04:03:58.479Z,14.23
2018-05-29T04:06:29.118Z,14.29
2018-05-29T04:08:58.169Z,14.49
2018-05-29T04:11:27.254Z,14.51
2018-05-29T04:13:57.215Z,14.58
2018-05-29T04:16:26.357Z,14.74
2018-05-29T04:18:56.594Z,14.94
2018-05-29T04:21:25.637Z,15.07
2018-05-29T04:23:55.273Z,15.22
2018-05-29T04:26:24.310Z,15.39
2018-05-29T04:28:53.375Z,15.72
2018-05-29T04:31:22.412Z,15.99
2018-05-29T04:33:51.865Z,16.17
2018-05-29T04:36:21.005Z,16.29
2018-05-29T04:38:50.499Z,16.27
2018-05-29T04:41:19.539Z,16.37
2018-05-29T04:43:49.330Z,16.54
2018-05-29T04:46:18.381Z,16.70
2018-05-29T04:48:47.437Z,16.99
2018-05-29T04:53:52.395Z,17.42
2018-05-29T04:56:21.429Z,17.47
2018-05-29T04:58:51.493Z,17.64
2018-05-29T05:01:20.545Z,17.68
2018-05-29T05:03:50.242Z,17.74
2018-05-29T05:06:19.296Z,17.74
2018-05-29T05:08:48.369Z,17.75
2018-05-29T05:11:17.490Z,17.77
2018-05-29T05:13:46.555Z,17.85
2018-05-29T05:18:52.463Z,18.01
2018-05-29T05:23:57.358Z,18.24
2018-05-29T05:26:26.958Z,18.32
2018-05-29T05:28:56.013Z,18.38
2018-05-29T05:31:25.147Z,18.71
2018-05-29T05:33:54.190Z,18.93
2018-05-29T05:36:23.367Z,19.01
2018-05-29T05:38:52.615Z,19.01
2018-05-29T05:41:21.736Z,19.04
2018-05-29T05:43:51.318Z,19.05
2018-05-29T05:46:20.338Z,19.23
2018-05-29T05:48:50.477Z,19.67
2018-05-29T05:51:19.505Z,19.88
2018-05-29T05:53:49.246Z,19.89
2018-05-29T05:56:18.294Z,19.99
2018-05-29T06:01:23.226Z,20.50
2018-05-29T06:03:54.286Z,20.82
2018-05-29T06:06:23.314Z,20.84
2018-05-29T06:11:28.450Z,20.69
2018-05-29T06:13:57.499Z,20.68
2018-05-29T06:16:27.332Z,20.76
2018-05-29T06:21:32.038Z,21.04
2018-05-29T06:24:01.085Z,21.11
2018-05-29T06:26:30.449Z,21.12
2018-05-29T06:28:59.494Z,21.31
2018-05-29T06:31:28.983Z,21.13
2018-05-29T06:33:58.038Z,21.19
2018-05-29T06:36:27.790Z,21.34
2018-05-29T06:38:57.177Z,21.42
2018-05-29T06:41:26.241Z,21.32
2018-05-29T06:43:55.285Z,21.14
2018-05-29T06:46:24.341Z,21.20
2018-05-29T06:48:53.865Z,21.54
2018-05-29T06:51:22.916Z,21.50
2018-05-29T06:53:53.046Z,21.45
2018-05-29T06:56:22.324Z,21.53
2018-05-29T06:58:52.002Z,21.82
2018-05-29T07:01:21.592Z,21.67
2018-05-29T07:03:51.390Z,21.89
2018-05-29T07:06:20.438Z,22.27
2018-05-29T07:08:50.913Z,22.58
2018-05-29T07:11:19.966Z,23.02
2018-05-29T07:13:50.459Z,23.37
2018-05-29T07:16:19.493Z,23.45
2018-05-29T07:18:48.695Z,23.52
2018-05-29T07:21:18.037Z,23.63
2018-05-29T07:23:47.082Z,23.72
2018-05-29T07:26:16.129Z,23.75
2018-05-29T07:28:45.186Z,23.49
2018-05-29T07:31:14.249Z,23.48
2018-05-29T07:33:43.297Z,23.13
2018-05-29T07:38:48.485Z,23.19
2018-05-29T07:41:18.774Z,23.40
2018-05-29T07:43:47.804Z,23.32
2018-05-29T07:46:18.688Z,23.29
2018-05-29T07:48:48.125Z,23.03
2018-05-29T07:51:17.192Z,23.19
2018-05-29T07:53:46.563Z,22.54
2018-05-29T07:56:15.618Z,22.75
2018-05-29T07:58:45.174Z,22.96
2018-05-29T08:01:14.251Z,23.17
2018-05-29T08:03:44.048Z,23.24
2018-05-29T08:06:13.082Z,23.24
2018-05-29T08:08:44.178Z,23.28
2018-05-29T08:11:13.266Z,23.36
2018-05-29T08:13:42.313Z,23.13
2018-05-29T08:16:11.378Z,23.54
2018-05-29T08:18:40.634Z,23.58
2018-05-29T08:21:09.693Z,23.85
2018-05-29T08:26:14.646Z,23.92
2018-05-29T08:28:43.706Z,23.93
2018-05-29T08:31:12.758Z,23.98
2018-05-29T08:33:41.813Z,24.29
2018-05-29T08:38:46.601Z,24.00
2018-05-29T08:41:16.327Z,24.27
2018-05-29T08:43:45.597Z,24.24
2018-05-29T08:46:14.650Z,24.61
2018-05-29T08:48:43.710Z,24.54
2018-05-29T08:53:49.154Z,24.96
2018-05-29T08:58:53.944Z,25.91
2018-05-29T09:01:23.021Z,25.55
2018-05-29T09:03:52.337Z,25.73
2018-05-29T09:06:21.387Z,25.58
2018-05-29T09:08:51.045Z,25.26
2018-05-29T09:11:20.101Z,25.63
2018-05-29T09:13:49.768Z,26.32
2018-05-29T09:16:18.822Z,26.35
2018-05-29T09:18:48.457Z,26.21
2018-05-29T09:21:17.560Z,27.15
2018-05-29T09:23:46.890Z,27.25
2018-05-29T09:26:15.948Z,27.28
2018-05-29T09:31:21.182Z,28.73
2018-05-29T09:33:50.226Z,28.25
2018-05-29T09:36:20.212Z,28.50
2018-05-29T09:38:49.233Z,29.77
2018-05-29T09:41:18.298Z,29.77
2018-05-29T09:43:47.342Z,29.85
2018-05-29T09:46:17.006Z,30.62
2018-05-29T09:48:46.049Z,28.54
2018-05-29T09:51:15.940Z,28.76
2018-05-29T09:56:20.918Z,27.98
2018-05-29T09:58:50.140Z,26.61
2018-05-29T10:01:19.205Z,26.24
2018-05-29T10:03:48.510Z,25.98
2018-05-29T10:08:53.537Z,25.87
2018-05-29T10:11:22.790Z,25.80
2018-05-29T10:13:51.830Z,25.79
2018-05-29T10:16:20.916Z,26.10
2018-05-29T10:18:49.967Z,25.82
2018-05-29T10:21:19.441Z,25.73
2018-05-29T10:23:48.487Z,25.76
2018-05-29T10:26:18.033Z,25.28
2018-05-29T10:28:47.077Z,25.27
2018-05-29T10:31:16.642Z,25.28
2018-05-29T10:33:45.729Z,25.62
2018-05-29T10:36:15.407Z,25.59
2018-05-29T10:38:46.479Z,26.12
2018-05-29T10:43:51.325Z,27.13
2018-05-29T10:48:56.979Z,27.85
2018-05-29T10:54:02.349Z,28.37
2018-05-29T10:56:31.590Z,28.14
2018-05-29T10:59:00.648Z,28.01
2018-05-29T11:01:30.582Z,28.92
2018-05-29T11:03:59.619Z,29.91
2018-05-29T11:06:30.181Z,29.60
2018-05-29T11:08:59.613Z,29.44
2018-05-29T11:14:04.493Z,30.98
2018-05-29T11:16:34.054Z,31.31
2018-05-29T11:19:03.173Z,31.84
2018-05-29T11:21:33.809Z,32.26
2018-05-29T11:24:02.851Z,32.45
2018-05-29T11:31:45.045Z,32.28
2018-05-29T11:34:14.191Z,32.01
2018-05-29T11:36:43.253Z,32.12
2018-05-29T11:39:12.793Z,32.55
2018-05-29T11:41:41.850Z,32.20
2018-05-29T11:44:11.116Z,32.18
2018-05-29T11:46:40.153Z,31.56
2018-05-29T11:49:09.210Z,31.67
2018-05-29T11:51:38.269Z,31.89
2018-05-29T11:54:07.323Z,32.08
2018-05-29T11:59:12.743Z,32.36
2018-05-29T12:01:41.796Z,31.67
2018-05-29T12:04:11.464Z,31.92
2018-05-29T12:06:40.506Z,32.80
2018-05-29T12:09:09.557Z,33.31
2018-05-29T12:11:42.903Z,34.10
2018-05-29T12:16:48.293Z,37.05
2018-05-29T12:21:53.124Z,37.74
2018-05-29T12:24:23.050Z,36.48
2018-05-29T12:26:52.129Z,35.06
2018-05-29T12:29:22.107Z,33.60
2018-05-29T12:31:51.157Z,33.46
2018-05-29T12:34:20.682Z,33.62
2018-05-29T12:36:49.722Z,34.32
2018-05-29T12:39:19.582Z,35.20
2018-05-29T12:41:48.632Z,35.69
2018-05-29T12:44:18.246Z,36.38
2018-05-29T12:46:47.745Z,36.48
2018-05-29T12:49:17.309Z,35.34
2018-05-29T12:51:46.358Z,33.77
2018-05-29T12:54:16.115Z,33.07
2018-05-29T12:56:45.139Z,33.73
2018-05-29T12:59:14.176Z,34.27
2018-05-29T13:01:43.224Z,34.64
2018-05-29T13:04:12.877Z,35.05
2018-05-29T13:06:41.925Z,33.94
2018-05-29T13:09:11.382Z,33.06
2018-05-29T13:11:40.430Z,33.04
2018-05-29T13:14:10.130Z,32.60
2018-05-29T13:19:15.034Z,33.53
2018-05-29T13:21:44.265Z,32.80
2018-05-29T13:24:13.317Z,33.21
2018-05-29T13:26:42.974Z,34.07
2018-05-29T13:29:12.012Z,33.41
2018-05-29T13:31:41.553Z,33.85
2018-05-29T13:34:10.614Z,34.66
2018-05-29T13:36:40.322Z,34.84
2018-05-29T13:39:09.423Z,34.65
2018-05-29T13:41:39.136Z,34.56
2018-05-29T13:44:08.185Z,35.54
2018-05-29T13:49:13.037Z,40.16
2018-05-29T13:56:56.375Z,42.63
2018-05-29T13:59:27.163Z,41.90
2018-05-29T14:01:56.187Z,42.60
2018-05-29T14:04:26.119Z,40.35
2018-05-29T14:06:55.302Z,38.86
2018-05-29T14:09:24.370Z,36.80
2018-05-29T14:11:53.771Z,38.30
2018-05-29T14:17:00.307Z,40.50
2018-05-29T14:22:05.206Z,42.64
2018-05-29T14:27:10.045Z,43.02
2018-05-29T14:32:14.949Z,44.69
2018-05-29T14:34:44.169Z,43.79
2018-05-29T14:37:13.225Z,43.88
2018-05-29T14:39:42.287Z,44.38
2018-05-29T14:42:11.654Z,44.26
2018-05-29T14:44:42.154Z,43.87
2018-05-29T14:49:47.087Z,43.81
2018-05-29T14:52:16.742Z,43.86
2018-05-29T14:54:45.786Z,41.99
2018-05-29T14:57:15.478Z,41.87
2018-05-29T14:59:44.529Z,42.66
2018-05-29T15:02:13.580Z,43.05
2018-05-29T15:04:42.643Z,43.12
2018-05-29T15:07:11.682Z,41.17
2018-05-29T15:09:41.347Z,42.18
2018-05-29T15:12:10.394Z,41.12
2018-05-29T15:14:40.145Z,41.17
2018-05-29T15:17:09.194Z,40.80
2018-05-29T15:19:38.254Z,40.95
2018-05-29T15:24:43.823Z,42.39
2018-05-29T15:29:48.078Z,46.08
2018-05-29T15:32:17.126Z,44.18
2018-05-29T15:34:46.714Z,40.82
2018-05-29T15:37:15.742Z,39.52
2018-05-29T15:39:44.811Z,39.93
2018-05-29T15:42:13.897Z,40.91
2018-05-29T15:44:43.793Z,40.59
2018-05-29T15:47:12.863Z,40.37
2018-05-29T15:52:17.791Z,42.65
2018-05-29T15:54:46.838Z,43.05
2018-05-29T15:57:15.880Z,41.03
2018-05-29T15:59:44.927Z,38.62
2018-05-29T16:02:13.982Z,37.63
2018-05-29T16:04:43.029Z,35.61
2018-05-29T16:07:12.989Z,34.52
2018-05-29T16:09:42.993Z,32.76
2018-05-29T16:12:12.046Z,31.30
2018-05-29T16:14:41.983Z,30.54
2018-05-29T16:17:11.048Z,29.64
2018-05-29T16:19:41.127Z,29.30
2018-05-29T16:22:10.169Z,29.77
2018-05-29T16:27:15.075Z,30.08
2018-05-29T16:29:44.750Z,29.78
2018-05-29T16:32:13.792Z,29.96
2018-05-29T16:37:19.631Z,29.36
2018-05-29T16:39:49.198Z,29.17
2018-05-29T16:42:18.244Z,29.08
2018-05-29T16:44:47.585Z,28.80
2018-05-29T16:47:16.640Z,29.10
2018-05-29T16:49:45.673Z,28.99
2018-05-29T16:52:14.974Z,28.99
2018-05-29T16:54:44.512Z,28.76
2018-05-29T16:59:49.795Z,28.28
2018-05-29T17:02:18.821Z,28.16
2018-05-29T17:04:49.452Z,27.96
2018-05-29T17:07:18.491Z,27.74
2018-05-29T17:09:47.536Z,28.01
2018-05-29T17:12:16.602Z,27.96
2018-05-29T17:14:45.649Z,28.08
2018-05-29T17:17:15.160Z,28.23
2018-05-29T17:19:44.234Z,28.37
2018-05-29T17:22:14.102Z,28.28
2018-05-29T17:24:43.153Z,28.27
2018-05-29T17:27:12.203Z,28.45
2018-05-29T17:29:41.688Z,28.28
2018-05-29T17:32:10.874Z,28.05
2018-05-29T17:34:40.645Z,27.84
2018-05-29T17:37:09.673Z,27.75
2018-05-29T17:39:38.808Z,27.81
2018-05-29T17:42:07.855Z,27.56
2018-05-29T17:47:12.758Z,27.13
2018-05-29T17:49:41.814Z,27.03
2018-05-29T17:52:10.855Z,26.89
2018-05-29T17:54:39.914Z,26.63
2018-05-29T17:57:09.196Z,26.50
2018-05-29T17:59:38.237Z,26.26
2018-05-29T18:02:07.301Z,26.36
2018-05-29T18:07:16.820Z,26.42
2018-05-29T18:09:46.806Z,26.16
2018-05-29T18:12:41.390Z,26.17
2018-05-29T18:17:46.374Z,25.74
2018-05-29T18:20:16.326Z,25.55
2018-05-29T18:22:45.390Z,25.56
2018-05-29T18:25:42.514Z,25.42
2018-05-29T18:28:12.531Z,25.18
2018-05-29T18:30:45.918Z,25.10
2018-05-29T18:33:15.028Z,24.96
2018-05-29T18:35:44.996Z,24.82
2018-05-29T18:38:14.054Z,24.73
2018-05-29T18:40:43.273Z,24.68
2018-05-29T18:43:12.367Z,24.64
2018-05-29T18:45:45.222Z,24.60
2018-05-29T18:48:15.259Z,24.29
2018-05-29T18:50:44.334Z,24.11
2018-05-29T18:53:21.036Z,23.98
2018-05-29T18:55:50.095Z,23.87
2018-05-29T19:00:59.098Z,23.74
2018-05-29T19:03:30.130Z,23.64
2018-05-29T19:06:04.655Z,23.45
2018-05-29T19:11:16.248Z,23.24
2018-05-29T19:13:45.308Z,23.03
2018-05-29T19:16:14.405Z,22.79
2018-05-29T19:18:43.486Z,22.74
2018-05-29T19:21:18.441Z,22.71
2018-05-29T19:23:47.500Z,22.57
2018-05-29T19:26:20.823Z,22.39
2018-05-29T19:28:50.868Z,22.29
2018-05-29T19:31:20.889Z,22.22
2018-05-29T19:33:49.955Z,22.13
2018-05-29T19:36:19.060Z,22.12
2018-05-29T19:38:48.137Z,22.05
2018-05-29T19:43:53.027Z,22.14
2018-05-29T19:46:35.969Z,22.07
2018-05-29T19:49:08.167Z,22.00
2018-05-29T19:51:37.290Z,22.08
2018-05-29T19:54:06.423Z,21.99
2018-05-29T19:56:35.481Z,21.92
2018-05-29T19:59:04.575Z,22.00
2018-05-29T20:01:33.643Z,21.82
2018-05-29T20:06:39.458Z,21.86
2018-05-29T20:09:08.570Z,21.87
2018-05-29T20:11:37.699Z,21.76
2018-05-29T20:14:06.754Z,21.71
2018-05-29T20:16:35.817Z,21.78
2018-05-29T20:19:10.742Z,21.59
2018-05-29T20:21:39.821Z,21.55
2018-05-29T20:24:08.922Z,21.53
2018-05-29T20:26:37.993Z,21.34
2018-05-29T20:29:08.006Z,21.07
2018-05-29T20:34:12.999Z,20.63
2018-05-29T20:36:42.921Z,20.46
2018-05-29T20:39:13.242Z,20.28
2018-05-29T20:41:46.988Z,20.32
2018-05-29T20:44:16.062Z,20.21
2018-05-29T20:46:45.178Z,20.14
2018-05-29T20:49:15.290Z,20.14
2018-05-29T20:51:52.178Z,20.03
2018-05-29T20:54:21.262Z,20.05
2018-05-29T20:56:50.373Z,19.94
2018-05-29T20:59:19.553Z,19.92
2018-05-29T21:02:11.255Z,19.99
2018-05-29T21:04:53.051Z,19.91
2018-05-29T21:07:22.173Z,19.92
2018-05-29T21:10:01.009Z,19.86
2018-05-29T21:12:30.109Z,19.78
2018-05-29T21:15:13.751Z,19.69
2018-05-29T21:17:56.421Z,19.65
2018-05-29T21:20:26.472Z,19.59
2018-05-29T21:22:58.627Z,19.60
2018-05-29T21:25:27.904Z,19.46
2018-05-29T21:27:57.050Z,19.53
2018-05-29T21:30:26.125Z,19.47
2018-05-29T21:32:55.223Z,19.39
2018-05-29T21:35:24.347Z,19.40
2018-05-29T21:40:30.141Z,19.49
2018-05-29T21:43:11.741Z,19.49
2018-05-29T21:45:50.355Z,19.45
2018-05-29T21:48:19.433Z,19.46
2018-05-29T21:50:48.510Z,19.49
2018-05-29T21:53:17.579Z,19.52
2018-05-29T21:55:57.037Z,19.51
2018-05-29T21:58:26.722Z,19.46
2018-05-29T22:00:55.826Z,19.55
2018-05-29T22:03:24.907Z,19.58
2018-05-29T22:05:55.016Z,19.65
2018-05-29T22:08:24.108Z,19.68
2018-05-29T22:10:55.100Z,19.70
2018-05-29T22:13:24.178Z,19.69
2018-05-29T22:15:53.254Z,19.86
2018-05-29T22:18:22.396Z,19.82
2018-05-29T22:21:06.799Z,19.72
2018-05-29T22:23:54.624Z,19.66
2018-05-29T22:26:23.726Z,19.70
2018-05-29T22:28:56.471Z,19.79
2018-05-29T22:31:25.554Z,19.75
2018-05-29T22:33:54.630Z,19.71
2018-05-29T22:36:23.698Z,19.73
2018-05-29T22:41:28.501Z,19.71
2018-05-29T22:43:57.575Z,19.35
2018-05-29T22:46:26.687Z,19.17
2018-05-29T22:51:31.630Z,18.98
2018-05-29T22:56:36.429Z,18.67
2018-05-29T22:59:05.556Z,18.34
2018-05-29T23:04:10.483Z,17.86
2018-05-29T23:06:42.954Z,17.75
2018-05-29T23:09:12.009Z,17.47
2018-05-29T23:11:41.061Z,17.26
2018-05-29T23:16:45.918Z,16.92
2018-05-29T23:19:14.985Z,16.84
2018-05-29T23:24:19.757Z,16.47
2018-05-29T23:29:24.573Z,16.46
2018-05-29T23:31:54.569Z,16.27
2018-05-29T23:34:23.633Z,16.20
2018-05-29T23:36:52.698Z,16.23
2018-05-29T23:39:21.767Z,16.29
2018-05-29T23:42:05.191Z,16.23
2018-05-29T23:44:44.115Z,16.26
2018-05-29T23:47:12.797Z,16.28
2018-05-29T23:50:02.364Z,16.24
2018-05-29T23:52:38.457Z,16.16
2018-05-29T23:55:07.019Z,16.17
2018-05-29T23:57:35.565Z,16.25
